createdAt,value
2023-08-15T00:02:06.524Z,20.54
2023-08-15T00:04:36.705Z,20.52
2023-08-15T00:07:06.475Z,20.49
2023-08-15T00:09:34.747Z,20.47
2023-08-15T00:12:02.608Z,20.45
2023-08-15T00:14:30.356Z,20.44
2023-08-15T00:16:58.166Z,20.41
2023-08-15T00:19:25.974Z,20.38
2023-08-15T00:21:53.869Z,20.37
2023-08-15T00:24:23.166Z,20.33
2023-08-15T00:26:50.861Z,20.30
2023-08-15T00:29:18.970Z,20.28
2023-08-15T00:31:46.780Z,20.29
2023-08-15T00:34:14.616Z,20.29
2023-08-15T00:36:42.302Z,20.31
2023-08-15T00:39:10.042Z,20.20
2023-08-15T00:41:39.624Z,19.99
2023-08-15T00:44:07.464Z,20.09
2023-08-15T00:46:35.509Z,20.25
2023-08-15T00:49:03.546Z,20.07
2023-08-15T00:51:31.397Z,19.97
2023-08-15T00:53:59.417Z,19.90
2023-08-15T00:56:27.660Z,19.86
2023-08-15T00:58:56.754Z,19.65
2023-08-15T01:01:26.064Z,19.86
2023-08-15T01:03:54.088Z,19.88
2023-08-15T01:06:21.910Z,19.95
2023-08-15T01:08:49.593Z,19.96
2023-08-15T01:11:17.576Z,19.99
2023-08-15T01:13:47.380Z,20.07
2023-08-15T01:16:20.224Z,20.07
2023-08-15T01:18:52.070Z,19.59
2023-08-15T01:21:27.152Z,19.80
2023-08-15T01:23:58.070Z,19.81
2023-08-15T01:26:25.953Z,19.80
2023-08-15T01:28:53.718Z,19.87
2023-08-15T01:31:28.009Z,19.91
2023-08-15T01:34:00.340Z,19.85
2023-08-15T01:36:32.653Z,19.92
2023-08-15T01:39:02.559Z,19.98
2023-08-15T01:41:31.496Z,19.80
2023-08-15T01:44:00.202Z,19.65
2023-08-15T01:46:28.167Z,19.79
2023-08-15T01:48:56.094Z,19.84
2023-08-15T01:51:24.046Z,19.72
2023-08-15T01:53:51.805Z,19.73
2023-08-15T01:56:21.025Z,19.62
2023-08-15T01:58:48.739Z,19.55
2023-08-15T02:01:16.763Z,19.63
2023-08-15T02:03:44.391Z,19.65
2023-08-15T02:06:12.501Z,19.63
2023-08-15T02:08:40.519Z,19.56
2023-08-15T02:11:08.224Z,19.42
2023-08-15T02:13:37.417Z,19.52
2023-08-15T02:16:05.317Z,19.49
2023-08-15T02:18:33.382Z,19.39
2023-08-15T02:21:01.099Z,19.29
2023-08-15T02:23:28.989Z,19.43
2023-08-15T02:25:56.800Z,19.49
2023-08-15T02:28:25.057Z,19.49
2023-08-15T02:30:55.753Z,19.41
2023-08-15T02:33:24.271Z,19.37
2023-08-15T02:35:53.277Z,19.35
2023-08-15T02:38:21.143Z,19.31
2023-08-15T02:40:50.320Z,19.27
2023-08-15T02:43:18.101Z,19.27
2023-08-15T02:45:45.805Z,19.13
2023-08-15T02:48:15.674Z,19.14
2023-08-15T02:50:44.237Z,19.02
2023-08-15T02:53:11.904Z,18.99
2023-08-15T02:55:39.917Z,18.88
2023-08-15T02:58:07.829Z,18.83
2023-08-15T03:00:36.349Z,18.81
2023-08-15T03:03:04.247Z,18.92
2023-08-15T03:05:33.379Z,18.93
2023-08-15T03:08:01.122Z,18.87
2023-08-15T03:10:28.903Z,18.67
2023-08-15T03:12:56.699Z,18.64
2023-08-15T03:15:24.790Z,18.74
2023-08-15T03:17:52.724Z,18.80
2023-08-15T03:20:20.803Z,18.89
2023-08-15T03:22:49.895Z,18.68
2023-08-15T03:25:17.838Z,18.52
2023-08-15T03:27:45.556Z,18.36
2023-08-15T03:30:13.517Z,18.33
2023-08-15T03:32:41.298Z,18.34
2023-08-15T03:35:09.318Z,18.36
2023-08-15T03:37:37.765Z,18.49
2023-08-15T03:40:07.567Z,18.57
2023-08-15T03:42:35.268Z,18.49
2023-08-15T03:45:03.181Z,18.51
2023-08-15T03:47:30.862Z,18.47
2023-08-15T03:50:00.674Z,18.44
2023-08-15T03:52:28.629Z,18.50
2023-08-15T03:54:56.383Z,18.41
2023-08-15T03:57:25.622Z,18.43
2023-08-15T03:59:53.449Z,18.45
2023-08-15T04:02:21.248Z,18.56
2023-08-15T04:04:49.282Z,18.58
2023-08-15T04:07:17.204Z,18.49
2023-08-15T04:09:44.946Z,18.41
2023-08-15T04:12:12.637Z,18.48
2023-08-15T04:14:41.808Z,18.48
2023-08-15T04:17:09.642Z,18.46
2023-08-15T04:19:37.378Z,18.46
2023-08-15T04:22:05.156Z,18.34
2023-08-15T04:24:33.004Z,18.49
2023-08-15T04:27:01.950Z,18.47
2023-08-15T04:29:29.877Z,18.51
2023-08-15T04:31:59.442Z,18.49
2023-08-15T04:34:27.247Z,18.31
2023-08-15T04:36:55.421Z,18.36
2023-08-15T04:39:24.169Z,18.27
2023-08-15T04:41:52.109Z,18.22
2023-08-15T04:44:19.981Z,18.06
2023-08-15T04:46:47.808Z,18.09
2023-08-15T04:49:16.981Z,18.32
2023-08-15T04:51:44.743Z,18.24
2023-08-15T04:54:12.528Z,18.22
2023-08-15T04:56:40.595Z,18.11
2023-08-15T04:59:08.313Z,18.11
2023-08-15T05:01:36.539Z,18.04
2023-08-15T05:04:04.311Z,18.00
2023-08-15T05:06:34.563Z,18.12
2023-08-15T05:09:02.604Z,18.20
2023-08-15T05:11:30.691Z,18.26
2023-08-15T05:13:58.623Z,18.12
2023-08-15T05:16:26.476Z,18.08
2023-08-15T05:18:54.293Z,18.03
2023-08-15T05:21:22.601Z,18.06
2023-08-15T05:23:51.829Z,18.09
2023-08-15T05:26:19.667Z,18.07
2023-08-15T05:28:47.407Z,17.91
2023-08-15T05:31:16.038Z,17.95
2023-08-15T05:33:43.854Z,17.87
2023-08-15T05:36:11.763Z,17.89
2023-08-15T05:38:39.527Z,17.92
2023-08-15T05:41:08.814Z,17.94
2023-08-15T05:43:36.587Z,18.17
2023-08-15T05:46:04.574Z,18.15
2023-08-15T05:48:32.352Z,18.14
2023-08-15T05:51:00.236Z,18.10
2023-08-15T05:53:28.062Z,18.05
2023-08-15T05:55:56.340Z,18.05
2023-08-15T05:58:26.275Z,18.25
2023-08-15T06:00:55.452Z,18.29
2023-08-15T06:03:40.726Z,18.45
2023-08-15T06:06:12.163Z,18.51
2023-08-15T06:08:40.110Z,18.53
2023-08-15T06:11:08.006Z,18.65
2023-08-15T06:13:37.384Z,18.71
2023-08-15T06:16:05.333Z,18.77
2023-08-15T06:18:33.277Z,19.07
2023-08-15T06:21:01.721Z,19.23
2023-08-15T06:23:29.729Z,19.20
2023-08-15T06:25:58.122Z,19.33
2023-08-15T06:28:26.081Z,19.27
2023-08-15T06:30:55.509Z,19.33
2023-08-15T06:33:24.162Z,19.34
2023-08-15T06:35:52.023Z,19.31
2023-08-15T06:38:20.440Z,19.31
2023-08-15T06:40:48.394Z,19.28
2023-08-15T06:43:16.207Z,19.44
2023-08-15T06:45:44.138Z,19.37
2023-08-15T06:48:13.324Z,19.25
2023-08-15T06:50:41.015Z,19.32
2023-08-15T06:53:09.458Z,19.42
2023-08-15T06:55:37.305Z,19.51
2023-08-15T06:58:05.409Z,19.47
2023-08-15T07:00:33.263Z,19.58
2023-08-15T07:03:01.231Z,19.80
2023-08-15T07:05:31.179Z,19.88
2023-08-15T07:08:00.469Z,19.80
2023-08-15T07:10:28.403Z,19.72
2023-08-15T07:12:56.256Z,19.54
2023-08-15T07:15:24.363Z,19.75
2023-08-15T07:17:52.124Z,19.75
2023-08-15T07:20:21.010Z,19.66
2023-08-15T07:22:50.288Z,19.82
2023-08-15T07:25:18.715Z,20.02
2023-08-15T07:27:46.606Z,20.22
2023-08-15T07:30:14.920Z,20.42
2023-08-15T07:32:43.194Z,20.64
2023-08-15T07:35:11.318Z,20.67
2023-08-15T07:37:39.282Z,20.82
2023-08-15T07:40:11.544Z,20.84
2023-08-15T07:42:39.766Z,20.98
2023-08-15T07:45:10.395Z,21.02
2023-08-15T07:47:39.706Z,20.65
2023-08-15T07:50:14.237Z,20.66
2023-08-15T07:52:42.214Z,20.46
2023-08-15T07:55:11.747Z,20.18
2023-08-15T07:57:40.118Z,20.19
2023-08-15T08:00:09.444Z,20.08
2023-08-15T08:02:37.462Z,20.23
2023-08-15T08:05:07.864Z,20.45
2023-08-15T08:07:36.236Z,20.62
2023-08-15T08:10:04.421Z,20.87
2023-08-15T08:12:34.135Z,21.16
2023-08-15T08:15:01.974Z,21.25
2023-08-15T08:17:30.502Z,21.71
2023-08-15T08:19:58.492Z,21.75
2023-08-15T08:22:26.439Z,21.58
2023-08-15T08:24:54.755Z,21.92
2023-08-15T08:27:23.085Z,21.87
2023-08-15T08:29:52.267Z,22.38
2023-08-15T08:32:20.316Z,22.73
2023-08-15T08:34:49.787Z,22.63
2023-08-15T08:37:17.619Z,22.65
2023-08-15T08:39:45.464Z,22.11
2023-08-15T08:42:13.495Z,21.92
2023-08-15T08:44:42.083Z,21.79
2023-08-15T08:47:12.358Z,21.59
2023-08-15T08:49:40.743Z,21.40
2023-08-15T08:52:09.931Z,21.58
2023-08-15T08:57:09.716Z,21.41
2023-08-15T08:59:39.268Z,21.45
2023-08-15T09:02:09.591Z,21.53
2023-08-15T09:04:38.948Z,21.43
2023-08-15T09:07:06.747Z,21.67
2023-08-15T09:09:34.552Z,21.87
2023-08-15T09:12:02.515Z,21.83
2023-08-15T09:14:30.313Z,22.24
2023-08-15T09:17:01.062Z,22.16
2023-08-15T09:19:29.067Z,22.70
2023-08-15T09:21:58.274Z,22.56
2023-08-15T09:24:27.826Z,22.74
2023-08-15T09:26:55.751Z,22.47
2023-08-15T09:29:24.218Z,22.06
2023-08-15T09:31:53.241Z,21.97
2023-08-15T09:34:21.076Z,21.79
2023-08-15T09:36:48.940Z,21.87
2023-08-15T09:39:18.414Z,21.87
2023-08-15T09:41:49.545Z,21.92
2023-08-15T09:44:30.759Z,21.76
2023-08-15T09:46:58.820Z,21.58
2023-08-15T09:49:27.498Z,21.30
2023-08-15T09:51:55.440Z,20.92
2023-08-15T09:54:27.284Z,20.68
2023-08-15T09:56:56.106Z,20.61
2023-08-15T09:59:25.374Z,21.01
2023-08-15T10:01:54.663Z,21.05
2023-08-15T10:04:24.848Z,20.89
2023-08-15T10:06:53.872Z,20.90
2023-08-15T10:09:21.923Z,20.83
2023-08-15T10:11:51.439Z,20.76
2023-08-15T10:14:22.547Z,20.64
2023-08-15T10:16:51.161Z,20.26
2023-08-15T10:19:19.785Z,20.34
2023-08-15T10:21:52.314Z,20.16
2023-08-15T10:24:20.321Z,20.07
2023-08-15T10:26:48.549Z,20.40
2023-08-15T10:29:18.344Z,20.68
2023-08-15T10:31:46.804Z,20.65
2023-08-15T10:34:15.770Z,20.82
2023-08-15T10:36:44.118Z,20.97
2023-08-15T10:39:12.171Z,21.17
2023-08-15T10:41:40.070Z,21.15
2023-08-15T10:44:08.970Z,21.21
2023-08-15T10:46:38.907Z,21.23
2023-08-15T10:49:11.482Z,21.26
2023-08-15T10:51:39.877Z,21.03
2023-08-15T10:54:08.795Z,21.00
2023-08-15T10:56:37.488Z,20.90
2023-08-15T10:59:07.633Z,20.97
2023-08-15T11:01:37.929Z,20.94
2023-08-15T11:04:09.454Z,21.47
2023-08-15T11:06:42.829Z,21.62
2023-08-15T11:09:12.354Z,21.58
2023-08-15T11:11:40.579Z,21.70
2023-08-15T11:14:16.173Z,21.52
2023-08-15T11:16:44.337Z,21.77
2023-08-15T11:19:15.955Z,21.78
2023-08-15T11:21:43.943Z,21.70
2023-08-15T11:24:12.611Z,21.53
2023-08-15T11:26:41.522Z,21.27
2023-08-15T11:29:10.529Z,21.08
2023-08-15T11:31:38.509Z,21.34
2023-08-15T11:34:07.766Z,21.12
2023-08-15T11:36:38.593Z,21.24
2023-08-15T11:39:06.738Z,21.27
2023-08-15T11:41:36.669Z,20.92
2023-08-15T11:44:05.570Z,20.96
2023-08-15T11:46:51.396Z,21.06
2023-08-15T11:49:21.298Z,21.36
2023-08-15T11:51:51.301Z,21.19
2023-08-15T11:54:19.498Z,21.40
2023-08-15T11:56:50.844Z,21.42
2023-08-15T11:59:20.252Z,21.48
2023-08-15T12:01:49.268Z,21.64
2023-08-15T12:04:18.749Z,21.53
2023-08-15T12:06:46.764Z,21.58
2023-08-15T12:09:16.150Z,21.58
2023-08-15T12:11:44.920Z,21.79
2023-08-15T12:14:20.219Z,21.99
2023-08-15T12:16:48.072Z,22.06
2023-08-15T12:19:19.804Z,22.24
2023-08-15T12:21:50.397Z,22.32
2023-08-15T12:24:19.664Z,21.89
2023-08-15T12:26:47.530Z,22.04
2023-08-15T12:29:17.094Z,22.21
2023-08-15T12:31:46.227Z,21.89
2023-08-15T12:34:14.149Z,21.83
2023-08-15T12:36:42.352Z,21.88
2023-08-15T12:39:10.551Z,22.39
2023-08-15T12:41:39.912Z,22.66
2023-08-15T12:44:08.666Z,23.18
2023-08-15T12:46:36.843Z,22.99
2023-08-15T12:49:05.148Z,22.82
2023-08-15T12:51:33.960Z,22.72
2023-08-15T12:54:02.042Z,23.13
2023-08-15T12:56:29.925Z,23.18
2023-08-15T12:58:59.673Z,23.39
2023-08-15T13:01:27.976Z,23.86
2023-08-15T13:03:56.774Z,24.37
2023-08-15T13:06:25.378Z,24.87
2023-08-15T13:08:53.218Z,24.64
2023-08-15T13:11:21.149Z,24.82
2023-08-15T13:13:49.418Z,24.69
2023-08-15T13:16:19.321Z,24.73
2023-08-15T13:18:47.165Z,25.54
2023-08-15T13:21:18.340Z,25.14
2023-08-15T13:23:47.891Z,24.98
2023-08-15T13:26:15.676Z,25.66
2023-08-15T13:28:43.444Z,26.11
2023-08-15T13:31:11.379Z,25.33
2023-08-15T13:33:40.700Z,25.72
2023-08-15T13:36:08.717Z,26.44
2023-08-15T13:38:37.324Z,27.61
2023-08-15T13:41:05.588Z,28.27
2023-08-15T13:43:34.632Z,28.71
2023-08-15T13:46:05.868Z,30.60
2023-08-15T13:48:34.209Z,29.29
2023-08-15T13:51:04.891Z,30.01
2023-08-15T13:53:32.840Z,30.79
2023-08-15T13:56:00.749Z,29.87
2023-08-15T13:58:29.057Z,27.98
2023-08-15T14:00:57.302Z,29.87
2023-08-15T14:03:26.281Z,29.03
2023-08-15T14:05:54.329Z,29.13
2023-08-15T14:08:23.856Z,31.26
2023-08-15T14:10:51.911Z,30.99
2023-08-15T14:13:19.864Z,31.22
2023-08-15T14:15:47.688Z,32.87
2023-08-15T14:18:15.612Z,32.50
2023-08-15T14:20:43.508Z,33.08
2023-08-15T14:23:11.254Z,31.28
2023-08-15T14:25:40.596Z,30.66
2023-08-15T14:28:08.417Z,30.98
2023-08-15T14:30:36.418Z,30.76
2023-08-15T14:33:06.201Z,31.69
2023-08-15T14:35:34.395Z,32.72
2023-08-15T14:38:02.534Z,32.52
2023-08-15T14:40:30.283Z,31.50
2023-08-15T14:42:59.586Z,32.32
2023-08-15T14:45:27.605Z,32.59
2023-08-15T14:47:55.480Z,31.69
2023-08-15T14:50:23.821Z,29.94
2023-08-15T14:52:51.593Z,30.83
2023-08-15T14:55:19.888Z,29.77
2023-08-15T14:57:48.009Z,28.76
2023-08-15T15:00:17.709Z,27.86
2023-08-15T15:02:47.676Z,29.44
2023-08-15T15:05:15.691Z,30.19
2023-08-15T15:07:43.670Z,29.64
2023-08-15T15:10:11.814Z,29.51
2023-08-15T15:12:40.067Z,29.88
2023-08-15T15:15:09.934Z,30.59
2023-08-15T15:17:40.197Z,30.70
2023-08-15T15:20:08.605Z,31.36
2023-08-15T15:22:36.540Z,30.51
2023-08-15T15:25:04.716Z,31.27
2023-08-15T15:27:32.537Z,30.51
2023-08-15T15:30:00.365Z,30.52
2023-08-15T15:32:28.174Z,29.75
2023-08-15T15:34:57.404Z,29.45
2023-08-15T15:37:25.384Z,30.59
2023-08-15T15:39:54.306Z,30.38
2023-08-15T15:42:22.981Z,30.63
2023-08-15T15:44:51.095Z,29.50
2023-08-15T15:47:19.014Z,28.77
2023-08-15T15:49:46.874Z,29.35
2023-08-15T15:52:16.283Z,30.08
2023-08-15T15:54:44.108Z,29.23
2023-08-15T15:57:11.912Z,27.83
2023-08-15T15:59:39.846Z,27.79
2023-08-15T16:02:08.094Z,28.69
2023-08-15T16:04:37.419Z,29.39
2023-08-15T16:07:09.712Z,28.65
2023-08-15T16:09:40.498Z,28.61
2023-08-15T16:12:08.732Z,28.52
2023-08-15T16:14:37.659Z,28.33
2023-08-15T16:17:05.852Z,28.63
2023-08-15T16:19:33.619Z,27.72
2023-08-15T16:22:01.501Z,26.54
2023-08-15T16:24:31.387Z,26.27
2023-08-15T16:27:00.812Z,25.66
2023-08-15T16:29:29.176Z,26.73
2023-08-15T16:31:57.085Z,27.22
2023-08-15T16:34:25.230Z,27.21
2023-08-15T16:36:53.162Z,26.58
2023-08-15T16:39:21.030Z,25.53
2023-08-15T16:41:49.010Z,25.15
2023-08-15T16:44:18.884Z,24.61
2023-08-15T16:46:46.946Z,24.74
2023-08-15T16:49:14.925Z,24.71
2023-08-15T16:51:42.768Z,25.02
2023-08-15T16:54:10.585Z,24.20
2023-08-15T16:56:38.507Z,23.57
2023-08-15T16:59:06.411Z,23.90
2023-08-15T17:01:36.198Z,24.00
2023-08-15T17:04:04.785Z,24.18
2023-08-15T17:06:32.654Z,24.30
2023-08-15T17:09:00.616Z,24.07
2023-08-15T17:11:28.679Z,24.17
2023-08-15T17:13:56.564Z,24.24
2023-08-15T17:16:24.588Z,23.89
2023-08-15T17:18:53.831Z,23.49
2023-08-15T17:21:21.686Z,23.09
2023-08-15T17:23:50.289Z,22.80
2023-08-15T17:26:18.390Z,22.97
2023-08-15T17:28:46.971Z,22.60
2023-08-15T17:31:16.267Z,22.65
2023-08-15T17:33:44.923Z,22.27
2023-08-15T17:36:14.551Z,22.17
2023-08-15T17:38:42.794Z,22.55
2023-08-15T17:41:10.888Z,22.79
2023-08-15T17:43:38.724Z,22.60
2023-08-15T17:46:06.534Z,22.67
2023-08-15T17:48:34.436Z,22.84
2023-08-15T17:51:02.688Z,22.78
2023-08-15T17:53:31.915Z,22.76
2023-08-15T17:56:00.209Z,22.69
2023-08-15T17:58:31.913Z,22.39
2023-08-15T18:00:59.919Z,22.28
2023-08-15T18:03:28.185Z,22.14
2023-08-15T18:05:56.096Z,22.42
2023-08-15T18:08:24.574Z,22.50
2023-08-15T18:10:53.710Z,22.49
2023-08-15T18:13:21.508Z,22.11
2023-08-15T18:15:49.630Z,22.18
2023-08-15T18:18:17.573Z,22.17
2023-08-15T18:20:45.365Z,22.02
2023-08-15T18:23:13.498Z,22.07
2023-08-15T18:25:41.369Z,21.95
2023-08-15T18:28:10.598Z,21.80
2023-08-15T18:30:38.434Z,21.90
2023-08-15T18:33:06.570Z,21.86
2023-08-15T18:35:34.510Z,21.83
2023-08-15T18:38:02.297Z,21.79
2023-08-15T18:40:30.171Z,21.76
2023-08-15T18:42:58.223Z,21.70
2023-08-15T18:45:27.665Z,21.64
2023-08-15T18:47:55.680Z,21.60
2023-08-15T18:50:23.988Z,21.55
2023-08-15T18:52:51.947Z,21.49
2023-08-15T18:55:19.790Z,21.44
2023-08-15T18:57:47.765Z,21.36
2023-08-15T19:00:18.166Z,21.28
2023-08-15T19:02:48.733Z,21.23
2023-08-15T19:05:16.905Z,21.16
2023-08-15T19:07:45.111Z,21.08
2023-08-15T19:10:12.955Z,21.01
2023-08-15T19:12:40.827Z,20.92
2023-08-15T19:15:09.207Z,20.85
2023-08-15T19:17:37.023Z,20.84
2023-08-15T19:20:06.818Z,20.77
2023-08-15T19:22:34.657Z,20.65
2023-08-15T19:25:02.496Z,20.57
2023-08-15T19:27:30.429Z,20.53
2023-08-15T19:29:58.263Z,20.49
2023-08-15T19:32:26.685Z,20.40
2023-08-15T19:34:54.739Z,20.35
2023-08-15T19:37:36.334Z,20.30
2023-08-15T19:40:05.817Z,20.25
2023-08-15T19:42:33.635Z,20.21
2023-08-15T19:45:01.661Z,20.14
2023-08-15T19:47:29.845Z,20.06
2023-08-15T19:49:57.808Z,19.98
2023-08-15T19:52:28.342Z,19.98
2023-08-15T19:54:56.282Z,19.96
2023-08-15T19:57:24.427Z,19.92
2023-08-15T19:59:52.430Z,19.86
2023-08-15T20:02:21.666Z,19.82
2023-08-15T20:04:50.187Z,19.77
2023-08-15T20:07:18.804Z,19.74
2023-08-15T20:09:55.790Z,19.67
2023-08-15T20:12:27.638Z,19.62
2023-08-15T20:14:55.558Z,19.57
2023-08-15T20:17:24.001Z,19.49
2023-08-15T20:19:52.052Z,19.45
2023-08-15T20:22:19.877Z,19.38
2023-08-15T20:24:49.382Z,19.37
2023-08-15T20:27:17.475Z,19.35
2023-08-15T20:29:45.489Z,19.31
2023-08-15T20:32:13.443Z,19.25
2023-08-15T20:34:41.473Z,19.21
2023-08-15T20:37:09.596Z,19.15
2023-08-15T20:39:37.634Z,19.10
2023-08-15T20:42:07.157Z,19.06
2023-08-15T20:44:35.013Z,18.82
2023-08-15T20:47:03.769Z,18.95
2023-08-15T20:49:31.662Z,18.91
2023-08-15T20:51:59.565Z,18.88
2023-08-15T20:54:29.402Z,18.83
2023-08-15T20:56:57.282Z,18.79
2023-08-15T20:59:26.734Z,18.73
2023-08-15T21:01:54.586Z,18.71
2023-08-15T21:04:23.151Z,18.67
2023-08-15T21:06:53.382Z,18.60
2023-08-15T21:09:23.328Z,18.56
2023-08-15T21:11:51.440Z,18.52
2023-08-15T21:14:19.920Z,18.48
2023-08-15T21:16:49.100Z,18.44
2023-08-15T21:19:16.866Z,18.38
2023-08-15T21:21:44.855Z,18.36
2023-08-15T21:24:12.585Z,18.31
2023-08-15T21:26:42.942Z,18.27
2023-08-15T21:29:10.727Z,18.25
2023-08-15T21:31:38.593Z,18.21
2023-08-15T21:34:07.826Z,18.17
2023-08-15T21:36:36.169Z,18.14
2023-08-15T21:39:04.094Z,18.11
2023-08-15T21:41:31.970Z,18.07
2023-08-15T21:43:59.973Z,18.04
2023-08-15T21:46:27.993Z,18.01
2023-08-15T21:48:55.799Z,17.99
2023-08-15T21:51:28.237Z,17.97
2023-08-15T21:53:56.143Z,17.94
2023-08-15T21:56:24.311Z,17.91
2023-08-15T21:58:52.327Z,17.89
2023-08-15T22:01:20.620Z,17.85
2023-08-15T22:03:48.543Z,17.83
2023-08-15T22:06:16.389Z,17.78
2023-08-15T22:08:45.562Z,17.74
2023-08-15T22:11:13.368Z,17.71
2023-08-15T22:13:41.023Z,17.67
2023-08-15T22:16:08.944Z,17.64
2023-08-15T22:18:38.105Z,17.63
2023-08-15T22:21:06.053Z,17.60
2023-08-15T22:23:33.871Z,17.55
2023-08-15T22:26:03.138Z,17.53
2023-08-15T22:28:30.974Z,17.50
2023-08-15T22:31:01.343Z,17.47
2023-08-15T22:33:29.509Z,17.46
2023-08-15T22:35:57.264Z,17.42
2023-08-15T22:38:25.381Z,17.39
2023-08-15T22:40:53.230Z,17.36
2023-08-15T22:43:22.832Z,17.32
2023-08-15T22:45:50.711Z,17.28
2023-08-15T22:48:18.973Z,17.24
2023-08-15T22:50:46.832Z,17.21
2023-08-15T22:53:14.669Z,17.16
2023-08-15T22:55:42.608Z,17.14
2023-08-15T22:58:11.515Z,17.11
2023-08-15T23:00:40.993Z,17.08
2023-08-15T23:03:09.028Z,17.05
2023-08-15T23:05:37.182Z,17.04
2023-08-15T23:08:05.271Z,17.01
2023-08-15T23:10:33.076Z,16.98
2023-08-15T23:13:01.341Z,16.95
2023-08-15T23:15:29.163Z,16.92
2023-08-15T23:17:58.672Z,16.89
2023-08-15T23:20:26.427Z,16.93
2023-08-15T23:22:54.612Z,16.92
2023-08-15T23:25:22.561Z,16.90
2023-08-15T23:27:50.427Z,16.86
2023-08-15T23:30:19.450Z,16.84
2023-08-15T23:32:47.408Z,16.81
2023-08-15T23:35:17.996Z,16.75
2023-08-15T23:37:46.405Z,16.76
2023-08-15T23:40:14.235Z,16.71
2023-08-15T23:42:42.683Z,16.69
2023-08-15T23:45:12.028Z,16.40
2023-08-15T23:47:40.014Z,16.41
2023-08-15T23:50:08.330Z,16.52
2023-08-15T23:52:37.535Z,16.56
2023-08-15T23:55:05.728Z,16.59
2023-08-15T23:57:34.189Z,16.60
